createdAt,value
2017-08-27T00:00:16.578Z,20.17
2017-08-27T00:00:44.694Z,20.22
2017-08-27T00:01:12.724Z,20.22
2017-08-27T00:01:40.827Z,20.26
2017-08-27T00:02:08.964Z,20.21
2017-08-27T00:02:36.977Z,20.18
2017-08-27T00:03:05.874Z,20.18
2017-08-27T00:03:33.996Z,20.22
2017-08-27T00:04:02.020Z,20.11
2017-08-27T00:04:29.955Z,20.26
2017-08-27T00:04:58.071Z,20.24
2017-08-27T00:05:25.967Z,20.15
2017-08-27T00:05:53.961Z,20.24
2017-08-27T00:06:22.051Z,20.22
2017-08-27T00:06:50.152Z,20.32
2017-08-27T00:07:18.249Z,20.14
2017-08-27T00:07:46.279Z,20.15
2017-08-27T00:08:14.176Z,20.14
2017-08-27T00:08:42.286Z,20.14
2017-08-27T00:09:10.280Z,20.08
2017-08-27T00:09:38.390Z,20.14
2017-08-27T00:10:06.510Z,20.14
2017-08-27T00:10:34.529Z,20.08
2017-08-27T00:11:02.521Z,20.11
2017-08-27T00:11:30.400Z,20.1
2017-08-27T00:11:58.533Z,20.08
2017-08-27T00:12:26.553Z,20.08
2017-08-27T00:12:54.466Z,20.07
2017-08-27T00:13:22.452Z,20.08
2017-08-27T00:13:50.694Z,20.04
2017-08-27T00:14:18.696Z,20.08
2017-08-27T00:14:46.674Z,20.11
2017-08-27T00:15:14.767Z,20.08
2017-08-27T00:15:42.677Z,20.08
2017-08-27T00:16:10.759Z,20.11
2017-08-27T00:16:38.782Z,20.08
2017-08-27T00:17:06.596Z,20.08
2017-08-27T00:17:34.716Z,20.11
2017-08-27T00:18:02.846Z,20.08
2017-08-27T00:18:30.966Z,20.14
2017-08-27T00:18:59.087Z,20.12
2017-08-27T00:19:27.101Z,20.04
2017-08-27T00:19:55.215Z,20.15
2017-08-27T00:20:23.340Z,20.17
2017-08-27T00:20:51.478Z,20.19
2017-08-27T00:21:19.480Z,20.15
2017-08-27T00:21:47.484Z,20.15
2017-08-27T00:22:15.388Z,20.17
2017-08-27T00:22:43.388Z,20.17
2017-08-27T00:23:11.428Z,20.17
2017-08-27T00:23:39.337Z,20.19
2017-08-27T00:24:07.140Z,20.14
2017-08-27T00:24:35.182Z,20.17
2017-08-27T00:25:03.283Z,20.15
2017-08-27T00:25:31.416Z,20.15
2017-08-27T00:25:59.524Z,20.15
2017-08-27T00:26:27.449Z,20.15
2017-08-27T00:26:55.570Z,20.14
2017-08-27T00:27:23.714Z,20.1
2017-08-27T00:27:51.850Z,20.14
2017-08-27T00:28:19.863Z,20.07
2017-08-27T00:28:47.695Z,20.07
2017-08-27T00:29:15.574Z,20.04
2017-08-27T00:29:43.586Z,20.1
2017-08-27T00:30:11.712Z,20.03
2017-08-27T00:30:39.692Z,20.07
2017-08-27T00:31:07.833Z,20.08
2017-08-27T00:31:35.765Z,20.07
2017-08-27T00:32:03.814Z,19.94
2017-08-27T00:32:31.997Z,19.97
2017-08-27T00:33:00.018Z,19.96
2017-08-27T00:33:27.913Z,19.92
2017-08-27T00:33:55.921Z,19.85
2017-08-27T00:34:23.946Z,19.93
2017-08-27T00:34:51.841Z,19.94
2017-08-27T00:35:19.748Z,19.85
2017-08-27T00:35:47.781Z,19.84
2017-08-27T00:36:15.811Z,19.89
2017-08-27T00:36:43.847Z,19.84
2017-08-27T00:37:11.853Z,19.89
2017-08-27T00:37:39.866Z,19.85
2017-08-27T00:38:07.975Z,19.85
2017-08-27T00:38:36.082Z,19.84
2017-08-27T00:39:04.109Z,19.84
2017-08-27T00:39:32.040Z,19.89
2017-08-27T00:40:00.149Z,19.89
2017-08-27T00:40:28.164Z,19.84
2017-08-27T00:40:56.064Z,19.82
2017-08-27T00:41:23.976Z,19.79
2017-08-27T00:41:52.060Z,19.85
2017-08-27T00:42:19.975Z,19.81
2017-08-27T00:42:48.070Z,19.78
2017-08-27T00:43:16.173Z,19.77
2017-08-27T00:43:44.290Z,19.7
2017-08-27T00:44:12.379Z,19.72
2017-08-27T00:44:40.504Z,19.72
2017-08-27T00:45:08.515Z,19.7
2017-08-27T00:45:36.490Z,19.7
2017-08-27T00:46:04.433Z,19.7
2017-08-27T00:46:32.537Z,19.75
2017-08-27T00:47:00.630Z,19.72
2017-08-27T00:47:28.645Z,19.7
2017-08-27T00:47:57.433Z,19.64
2017-08-27T00:48:25.550Z,19.66
2017-08-27T00:48:53.644Z,19.64
2017-08-27T00:49:21.560Z,19.7
2017-08-27T00:49:49.654Z,19.64
2017-08-27T00:50:17.668Z,19.64
2017-08-27T00:50:45.477Z,19.64
2017-08-27T00:51:13.580Z,19.63
2017-08-27T00:51:41.652Z,19.72
2017-08-27T00:52:09.621Z,19.64
2017-08-27T00:52:37.653Z,19.64
2017-08-27T00:53:05.562Z,19.6
2017-08-27T00:53:33.570Z,19.62
2017-08-27T00:54:01.493Z,19.59
2017-08-27T00:54:29.611Z,19.66
2017-08-27T00:54:57.732Z,19.63
2017-08-27T00:55:25.914Z,19.63
2017-08-27T00:55:54.019Z,19.64
2017-08-27T00:56:22.033Z,19.66
2017-08-27T00:56:50.076Z,19.66
2017-08-27T00:57:18.060Z,19.53
2017-08-27T00:57:46.177Z,19.56
2017-08-27T00:58:14.215Z,19.59
2017-08-27T00:58:41.861Z,19.57
2017-08-27T00:59:09.847Z,19.56
2017-08-27T00:59:37.988Z,19.57
2017-08-27T01:00:06.084Z,19.56
2017-08-27T01:00:34.171Z,19.57
2017-08-27T01:01:02.169Z,19.55
2017-08-27T01:01:30.280Z,19.53
2017-08-27T01:01:58.283Z,19.53
2017-08-27T01:02:26.407Z,19.56
2017-08-27T01:02:54.399Z,19.57
2017-08-27T01:03:22.474Z,19.53
2017-08-27T01:03:50.466Z,19.56
2017-08-27T01:04:18.575Z,19.52
2017-08-27T01:04:46.571Z,19.49
2017-08-27T01:05:14.596Z,19.57
2017-08-27T01:05:42.508Z,19.45
2017-08-27T01:06:10.435Z,19.49
2017-08-27T01:06:38.446Z,19.44
2017-08-27T01:07:06.445Z,19.44
2017-08-27T01:07:34.449Z,19.47
2017-08-27T01:08:02.229Z,19.48
2017-08-27T01:08:30.258Z,19.42
2017-08-27T01:08:58.190Z,19.47
2017-08-27T01:09:26.216Z,19.48
2017-08-27T01:09:54.324Z,19.48
2017-08-27T01:10:22.437Z,19.35
2017-08-27T01:10:50.453Z,19.41
2017-08-27T01:11:18.467Z,19.37
2017-08-27T01:11:46.460Z,19.44
2017-08-27T01:12:14.492Z,19.42
2017-08-27T01:12:42.499Z,19.37
2017-08-27T01:13:11.384Z,19.35
2017-08-27T01:13:39.506Z,19.42
2017-08-27T01:14:07.512Z,19.34
2017-08-27T01:14:35.831Z,19.32
2017-08-27T01:15:04.229Z,19.38
2017-08-27T01:15:32.533Z,19.35
2017-08-27T01:16:00.521Z,19.29
2017-08-27T01:16:28.634Z,19.27
2017-08-27T01:16:56.741Z,19.29
2017-08-27T01:17:25.067Z,19.26
2017-08-27T01:17:53.092Z,19.37
2017-08-27T01:18:21.219Z,19.3
2017-08-27T01:18:49.342Z,19.29
2017-08-27T01:19:17.450Z,19.24
2017-08-27T01:19:45.440Z,19.34
2017-08-27T01:20:13.404Z,19.26
2017-08-27T01:20:41.419Z,19.26
2017-08-27T01:21:09.392Z,19.29
2017-08-27T01:21:37.391Z,19.26
2017-08-27T01:22:05.312Z,19.29
2017-08-27T01:22:33.315Z,19.24
2017-08-27T01:23:01.307Z,19.2
2017-08-27T01:23:29.298Z,19.2
2017-08-27T01:23:57.176Z,19.16
2017-08-27T01:24:25.311Z,19.19
2017-08-27T01:24:53.601Z,19.17
2017-08-27T01:25:21.739Z,19.19
2017-08-27T01:25:49.743Z,19.16
2017-08-27T01:26:18.625Z,19.08
2017-08-27T01:26:46.767Z,19.11
2017-08-27T01:27:14.652Z,19.11
2017-08-27T01:27:42.795Z,19.12
2017-08-27T01:28:10.836Z,19.12
2017-08-27T01:28:38.951Z,19.08
2017-08-27T01:29:06.997Z,19.04
2017-08-27T01:29:35.002Z,19.11
2017-08-27T01:30:03.086Z,19.09
2017-08-27T01:30:31.214Z,19.11
2017-08-27T01:30:59.337Z,19.12
2017-08-27T01:31:27.354Z,19.11
2017-08-27T01:31:55.245Z,19.09
2017-08-27T01:32:23.268Z,19.01
2017-08-27T01:32:51.282Z,19.17
2017-08-27T01:33:19.088Z,19.05
2017-08-27T01:33:47.158Z,19.05
2017-08-27T01:34:15.264Z,19.05
2017-08-27T01:34:43.369Z,19.01
2017-08-27T01:35:11.353Z,19
2017-08-27T01:35:39.452Z,19.04
2017-08-27T01:36:07.653Z,18.98
2017-08-27T01:36:35.779Z,19.07
2017-08-27T01:37:03.771Z,18.97
2017-08-27T01:37:31.869Z,18.89
2017-08-27T01:37:59.869Z,18.96
2017-08-27T01:38:28.005Z,19.01
2017-08-27T01:38:56.028Z,18.97
2017-08-27T01:39:24.090Z,19.07
2017-08-27T01:39:51.967Z,19.04
2017-08-27T01:40:19.957Z,18.92
2017-08-27T01:40:48.068Z,18.96
2017-08-27T01:41:16.195Z,18.94
2017-08-27T01:41:44.286Z,18.91
2017-08-27T01:42:12.376Z,18.92
2017-08-27T01:42:40.371Z,18.94
2017-08-27T01:43:08.392Z,18.98
2017-08-27T01:43:36.533Z,18.94
2017-08-27T01:44:04.639Z,18.94
2017-08-27T01:44:32.644Z,18.92
2017-08-27T01:45:00.645Z,18.98
2017-08-27T01:45:28.658Z,18.98
2017-08-27T01:45:56.769Z,18.97
2017-08-27T01:46:24.690Z,19.01
2017-08-27T01:46:52.815Z,18.97
2017-08-27T01:47:20.586Z,19.01
2017-08-27T01:47:48.599Z,19
2017-08-27T01:48:16.705Z,19
2017-08-27T01:48:44.709Z,18.94
2017-08-27T01:49:12.591Z,18.98
2017-08-27T01:49:40.581Z,18.97
2017-08-27T01:50:08.504Z,19
2017-08-27T01:50:36.628Z,18.91
2017-08-27T01:51:04.616Z,18.88
2017-08-27T01:51:32.730Z,18.89
2017-08-27T01:52:00.861Z,18.86
2017-08-27T01:52:29.000Z,18.88
2017-08-27T01:52:57.034Z,18.86
2017-08-27T01:53:25.096Z,18.82
2017-08-27T01:53:53.209Z,18.89
2017-08-27T01:54:21.306Z,18.85
2017-08-27T01:54:49.206Z,18.88
2017-08-27T01:55:17.313Z,18.85
2017-08-27T01:55:45.331Z,18.91
2017-08-27T01:56:13.155Z,18.81
2017-08-27T01:56:41.146Z,18.91
2017-08-27T01:57:09.255Z,18.85
2017-08-27T01:57:37.535Z,18.83
2017-08-27T01:58:05.634Z,18.86
2017-08-27T01:58:33.657Z,18.83
2017-08-27T01:59:01.667Z,18.89
2017-08-27T01:59:29.767Z,18.82
2017-08-27T01:59:57.879Z,18.91
2017-08-27T02:00:25.784Z,18.83
2017-08-27T02:00:53.816Z,18.83
2017-08-27T02:01:21.816Z,18.85
2017-08-27T02:01:49.808Z,18.82
2017-08-27T02:02:17.930Z,18.88
2017-08-27T02:02:46.000Z,18.86
2017-08-27T02:03:14.019Z,18.86
2017-08-27T02:03:42.023Z,18.66
2017-08-27T02:04:10.015Z,18.79
2017-08-27T02:04:38.024Z,18.81
2017-08-27T02:05:06.120Z,18.86
2017-08-27T02:05:34.250Z,18.82
2017-08-27T02:06:02.298Z,18.83
2017-08-27T02:06:30.219Z,18.78
2017-08-27T02:06:58.471Z,18.7
2017-08-27T02:07:26.991Z,18.74
2017-08-27T02:07:55.336Z,18.67
2017-08-27T02:08:23.328Z,18.73
2017-08-27T02:08:51.320Z,18.73
2017-08-27T02:09:19.425Z,18.71
2017-08-27T02:09:47.521Z,18.76
2017-08-27T02:10:16.240Z,18.7
2017-08-27T02:10:44.349Z,18.79
2017-08-27T02:11:12.477Z,18.78
2017-08-27T02:11:40.518Z,18.79
2017-08-27T02:12:08.631Z,18.67
2017-08-27T02:12:36.751Z,18.73
2017-08-27T02:13:04.769Z,18.67
2017-08-27T02:13:32.668Z,18.67
2017-08-27T02:14:00.840Z,18.64
2017-08-27T02:14:28.760Z,18.64
2017-08-27T02:14:56.775Z,18.63
2017-08-27T02:15:24.925Z,18.66
2017-08-27T02:15:52.940Z,18.61
2017-08-27T02:16:21.051Z,18.66
2017-08-27T02:16:49.036Z,18.6
2017-08-27T02:17:17.135Z,18.6
2017-08-27T02:17:45.164Z,18.53
2017-08-27T02:18:13.155Z,18.64
2017-08-27T02:18:41.288Z,18.61
2017-08-27T02:19:09.329Z,18.57
2017-08-27T02:19:37.468Z,18.58
2017-08-27T02:20:05.467Z,18.53
2017-08-27T02:20:33.507Z,18.53
2017-08-27T02:21:01.538Z,18.58
2017-08-27T02:21:29.488Z,18.52
2017-08-27T02:21:57.606Z,18.49
2017-08-27T02:22:25.721Z,18.49
2017-08-27T02:22:53.812Z,18.53
2017-08-27T02:23:21.722Z,18.52
2017-08-27T02:23:49.754Z,18.55
2017-08-27T02:24:17.892Z,18.53
2017-08-27T02:24:45.925Z,18.46
2017-08-27T02:25:14.030Z,18.55
2017-08-27T02:25:42.154Z,18.49
2017-08-27T02:26:10.167Z,18.49
2017-08-27T02:26:38.208Z,18.49
2017-08-27T02:27:06.276Z,18.48
2017-08-27T02:27:34.306Z,18.48
2017-08-27T02:28:02.284Z,18.49
2017-08-27T02:28:30.393Z,18.42
2017-08-27T02:28:58.305Z,18.39
2017-08-27T02:29:26.448Z,18.42
2017-08-27T02:29:54.470Z,18.42
2017-08-27T02:30:22.568Z,18.43
2017-08-27T02:30:50.591Z,18.39
2017-08-27T02:31:18.991Z,18.43
2017-08-27T02:31:47.125Z,18.46
2017-08-27T02:32:15.139Z,18.43
2017-08-27T02:32:43.254Z,18.43
2017-08-27T02:33:11.371Z,18.39
2017-08-27T02:33:39.371Z,18.37
2017-08-27T02:34:07.488Z,18.37
2017-08-27T02:34:35.487Z,18.36
2017-08-27T02:35:03.542Z,18.37
2017-08-27T02:35:31.369Z,18.46
2017-08-27T02:35:59.506Z,18.36
2017-08-27T02:36:27.510Z,18.42
2017-08-27T02:36:55.612Z,18.43
2017-08-27T02:37:23.755Z,18.36
2017-08-27T02:37:51.906Z,18.28
2017-08-27T02:38:19.924Z,18.31
2017-08-27T02:38:47.861Z,18.34
2017-08-27T02:39:15.975Z,18.31
2017-08-27T02:39:43.988Z,18.3
2017-08-27T02:40:12.079Z,18.28
2017-08-27T02:40:40.078Z,18.33
2017-08-27T02:41:08.210Z,18.31
2017-08-27T02:41:36.115Z,18.28
2017-08-27T02:42:03.907Z,18.41
2017-08-27T02:42:31.695Z,18.3
2017-08-27T02:42:59.801Z,18.31
2017-08-27T02:43:27.823Z,18.41
2017-08-27T02:43:55.917Z,18.42
2017-08-27T02:44:24.059Z,18.28
2017-08-27T02:44:52.171Z,18.31
2017-08-27T02:45:20.171Z,18.31
2017-08-27T02:45:48.251Z,18.34
2017-08-27T02:46:15.977Z,18.36
2017-08-27T02:46:44.146Z,18.26
2017-08-27T02:47:12.154Z,18.37
2017-08-27T02:47:40.275Z,18.33
2017-08-27T02:48:08.194Z,18.41
2017-08-27T02:48:36.237Z,18.34
2017-08-27T02:49:04.142Z,18.31
2017-08-27T02:49:32.178Z,18.28
2017-08-27T02:50:00.077Z,18.41
2017-08-27T02:50:28.187Z,18.36
2017-08-27T02:50:56.348Z,18.36
2017-08-27T02:51:24.461Z,18.31
2017-08-27T02:51:52.480Z,18.3
2017-08-27T02:52:20.457Z,18.3
2017-08-27T02:52:48.537Z,18.39
2017-08-27T02:53:16.642Z,18.41
2017-08-27T02:53:44.644Z,18.31
2017-08-27T02:54:12.562Z,18.39
2017-08-27T02:54:40.567Z,18.21
2017-08-27T02:55:08.485Z,18.39
2017-08-27T02:55:36.482Z,18.24
2017-08-27T02:56:04.504Z,18.26
2017-08-27T02:56:32.502Z,18.24
2017-08-27T02:57:00.497Z,18.26
2017-08-27T02:57:28.322Z,18.23
2017-08-27T02:57:56.456Z,18.24
2017-08-27T02:58:24.369Z,18.26
2017-08-27T02:58:52.469Z,18.21
2017-08-27T02:59:20.549Z,18.19
2017-08-27T02:59:48.562Z,18.23
2017-08-27T03:00:16.615Z,18.23
2017-08-27T03:00:44.744Z,18.23
2017-08-27T03:01:12.867Z,18.19
2017-08-27T03:01:40.913Z,18.21
2017-08-27T03:02:09.031Z,18.23
2017-08-27T03:02:37.190Z,18.23
2017-08-27T03:03:05.216Z,18.27
2017-08-27T03:03:33.384Z,18.19
2017-08-27T03:04:01.383Z,18.36
2017-08-27T03:04:29.408Z,18.26
2017-08-27T03:04:57.438Z,18.37
2017-08-27T03:05:25.240Z,18.27
2017-08-27T03:05:53.350Z,18.37
2017-08-27T03:06:21.471Z,18.26
2017-08-27T03:06:49.492Z,18.28
2017-08-27T03:07:17.465Z,18.39
2017-08-27T03:07:45.453Z,18.39
2017-08-27T03:08:13.559Z,18.31
2017-08-27T03:08:41.561Z,18.39
2017-08-27T03:09:09.559Z,18.36
2017-08-27T03:09:37.561Z,18.41
2017-08-27T03:10:05.659Z,18.41
2017-08-27T03:10:33.704Z,18.41
2017-08-27T03:11:01.708Z,18.39
2017-08-27T03:11:29.711Z,18.36
2017-08-27T03:11:57.807Z,18.34
2017-08-27T03:12:25.799Z,18.31
2017-08-27T03:12:53.921Z,18.33
2017-08-27T03:13:21.936Z,18.37
2017-08-27T03:13:50.047Z,18.34
2017-08-27T03:14:18.062Z,18.39
2017-08-27T03:14:46.207Z,18.24
2017-08-27T03:15:14.321Z,18.27
2017-08-27T03:15:42.316Z,18.23
2017-08-27T03:16:10.437Z,18.26
2017-08-27T03:16:38.358Z,18.23
2017-08-27T03:17:06.504Z,18.23
2017-08-27T03:17:34.372Z,18.27
2017-08-27T03:18:02.498Z,18.23
2017-08-27T03:18:30.606Z,18.21
2017-08-27T03:18:58.658Z,18.23
2017-08-27T03:19:27.092Z,18.21
2017-08-27T03:19:55.280Z,18.28
2017-08-27T03:20:23.352Z,18.24
2017-08-27T03:20:51.456Z,18.18
2017-08-27T03:21:19.458Z,18.23
2017-08-27T03:21:47.360Z,18.23
2017-08-27T03:22:15.441Z,18.26
2017-08-27T03:22:43.441Z,18.21
2017-08-27T03:23:11.473Z,18.15
2017-08-27T03:23:39.483Z,18.16
2017-08-27T03:24:07.571Z,18.15
2017-08-27T03:24:35.571Z,18.18
2017-08-27T03:25:03.594Z,18.21
2017-08-27T03:25:31.562Z,18.23
2017-08-27T03:25:59.572Z,18.24
2017-08-27T03:26:27.562Z,18.16
2017-08-27T03:26:55.374Z,18.19
2017-08-27T03:27:23.367Z,18.19
2017-08-27T03:27:51.194Z,18.21
2017-08-27T03:28:19.171Z,18.11
2017-08-27T03:28:47.264Z,18.23
2017-08-27T03:29:15.401Z,18.26
2017-08-27T03:29:43.430Z,18.19
2017-08-27T03:30:11.347Z,18.16
2017-08-27T03:30:39.497Z,18.13
2017-08-27T03:31:07.510Z,18.21
2017-08-27T03:31:35.626Z,18.21
2017-08-27T03:32:03.762Z,18.12
2017-08-27T03:32:31.763Z,18.23
2017-08-27T03:32:59.579Z,18.23
2017-08-27T03:33:27.506Z,18.23
2017-08-27T03:33:55.513Z,18.24
2017-08-27T03:34:23.536Z,18.26
2017-08-27T03:34:51.468Z,18.21
2017-08-27T03:35:19.274Z,18.24
2017-08-27T03:35:47.407Z,18.26
2017-08-27T03:36:15.327Z,18.23
2017-08-27T03:36:43.455Z,18.24
2017-08-27T03:37:11.590Z,18.16
2017-08-27T03:37:39.581Z,18.18
2017-08-27T03:38:07.712Z,18.16
2017-08-27T03:38:35.841Z,18.16
2017-08-27T03:39:03.855Z,18.09
2017-08-27T03:39:31.774Z,18.05
2017-08-27T03:39:59.783Z,18.19
2017-08-27T03:40:27.925Z,18.16
2017-08-27T03:40:55.939Z,18.11
2017-08-27T03:41:23.845Z,18.15
2017-08-27T03:41:51.957Z,18.15
2017-08-27T03:42:19.979Z,18.12
2017-08-27T03:42:47.862Z,18.11
2017-08-27T03:43:15.949Z,18.08
2017-08-27T03:43:44.057Z,18.03
2017-08-27T03:44:12.081Z,18.03
2017-08-27T03:44:39.997Z,18.05
2017-08-27T03:45:07.910Z,18.05
2017-08-27T03:45:36.052Z,18.08
2017-08-27T03:46:04.054Z,18.06
2017-08-27T03:46:31.892Z,18.08
2017-08-27T03:47:00.005Z,18.06
2017-08-27T03:47:28.113Z,18.02
2017-08-27T03:47:56.127Z,18.05
2017-08-27T03:48:24.208Z,18
2017-08-27T03:48:52.124Z,18
2017-08-27T03:49:20.103Z,17.98
2017-08-27T03:49:48.216Z,18.02
2017-08-27T03:50:15.901Z,18.03
2017-08-27T03:50:44.028Z,18
2017-08-27T03:51:12.132Z,17.95
2017-08-27T03:51:40.265Z,17.98
2017-08-27T03:52:08.376Z,18.08
2017-08-27T03:52:36.268Z,17.94
2017-08-27T03:53:04.301Z,17.94
2017-08-27T03:53:32.432Z,17.91
2017-08-27T03:54:00.475Z,17.93
2017-08-27T03:54:28.478Z,17.93
2017-08-27T03:54:56.488Z,17.98
2017-08-27T03:55:24.488Z,17.95
2017-08-27T03:55:53.003Z,17.93
2017-08-27T03:56:21.035Z,17.95
2017-08-27T03:56:49.157Z,17.98
2017-08-27T03:57:17.142Z,17.9
2017-08-27T03:57:45.253Z,17.93
2017-08-27T03:58:13.390Z,17.9
2017-08-27T03:58:41.293Z,17.94
2017-08-27T03:59:09.299Z,17.95
2017-08-27T03:59:37.324Z,17.98
2017-08-27T04:00:05.254Z,17.94
2017-08-27T04:00:33.235Z,17.91
2017-08-27T04:01:01.387Z,17.94
2017-08-27T04:01:29.422Z,17.94
2017-08-27T04:01:57.537Z,17.93
2017-08-27T04:02:25.557Z,17.91
2017-08-27T04:02:53.555Z,17.91
2017-08-27T04:03:21.550Z,17.88
2017-08-27T04:03:49.532Z,17.93
2017-08-27T04:04:17.450Z,17.86
2017-08-27T04:04:45.580Z,17.94
2017-08-27T04:05:13.557Z,17.9
2017-08-27T04:05:41.588Z,17.79
2017-08-27T04:06:09.711Z,17.86
2017-08-27T04:06:37.861Z,17.84
2017-08-27T04:07:05.900Z,17.79
2017-08-27T04:07:33.924Z,17.73
2017-08-27T04:08:02.098Z,17.84
2017-08-27T04:08:30.229Z,17.84
2017-08-27T04:08:58.234Z,17.84
2017-08-27T04:09:26.193Z,17.86
2017-08-27T04:09:54.233Z,17.84
2017-08-27T04:10:22.373Z,17.86
2017-08-27T04:10:50.416Z,17.82
2017-08-27T04:11:18.557Z,17.86
2017-08-27T04:11:46.626Z,17.76
2017-08-27T04:12:14.658Z,17.82
2017-08-27T04:12:42.684Z,17.79
2017-08-27T04:13:10.774Z,17.8
2017-08-27T04:13:38.814Z,17.75
2017-08-27T04:14:06.959Z,17.8
2017-08-27T04:14:34.978Z,17.8
2017-08-27T04:15:03.315Z,17.8
2017-08-27T04:15:31.330Z,17.75
2017-08-27T04:15:59.339Z,17.76
2017-08-27T04:16:27.351Z,17.78
2017-08-27T04:16:55.359Z,17.73
2017-08-27T04:17:23.261Z,17.76
2017-08-27T04:17:51.360Z,17.66
2017-08-27T04:18:19.166Z,17.71
2017-08-27T04:18:47.276Z,17.65
2017-08-27T04:19:15.273Z,17.72
2017-08-27T04:19:43.298Z,17.6
2017-08-27T04:20:11.420Z,17.6
2017-08-27T04:20:39.351Z,17.56
2017-08-27T04:21:07.351Z,17.56
2017-08-27T04:21:35.451Z,17.65
2017-08-27T04:22:03.576Z,17.69
2017-08-27T04:22:31.409Z,17.65
2017-08-27T04:22:59.305Z,17.56
2017-08-27T04:23:27.438Z,17.63
2017-08-27T04:23:55.553Z,17.47
2017-08-27T04:24:23.457Z,17.59
2017-08-27T04:24:51.460Z,17.41
2017-08-27T04:25:19.560Z,17.5
2017-08-27T04:25:47.708Z,17.49
2017-08-27T04:26:15.704Z,17.42
2017-08-27T04:26:43.713Z,17.44
2017-08-27T04:27:11.831Z,17.46
2017-08-27T04:27:39.946Z,17.47
2017-08-27T04:28:08.050Z,17.37
2017-08-27T04:28:36.057Z,17.38
2017-08-27T04:29:03.987Z,17.38
2017-08-27T04:29:32.012Z,17.5
2017-08-27T04:30:00.126Z,17.35
2017-08-27T04:30:28.247Z,17.34
2017-08-27T04:30:56.260Z,17.34
2017-08-27T04:31:24.357Z,17.37
2017-08-27T04:31:52.278Z,17.32
2017-08-27T04:32:20.293Z,17.35
2017-08-27T04:32:48.239Z,17.31
2017-08-27T04:33:16.243Z,17.3
2017-08-27T04:33:44.138Z,17.35
2017-08-27T04:34:12.273Z,17.23
2017-08-27T04:34:40.272Z,17.23
2017-08-27T04:35:08.282Z,17.27
2017-08-27T04:35:36.430Z,17.27
2017-08-27T04:36:04.546Z,17.27
2017-08-27T04:36:32.508Z,17.28
2017-08-27T04:37:00.419Z,17.27
2017-08-27T04:37:28.409Z,17.2
2017-08-27T04:37:56.536Z,17.17
2017-08-27T04:38:24.516Z,17.19
2017-08-27T04:38:52.655Z,17.22
2017-08-27T04:39:20.648Z,17.2
2017-08-27T04:39:48.722Z,17.17
2017-08-27T04:40:16.741Z,17.19
2017-08-27T04:40:44.671Z,17.17
2017-08-27T04:41:12.687Z,17.13
2017-08-27T04:41:40.715Z,17.14
2017-08-27T04:42:08.831Z,17.22
2017-08-27T04:42:36.862Z,17.16
2017-08-27T04:43:04.973Z,17.16
2017-08-27T04:43:33.073Z,17.04
2017-08-27T04:44:01.199Z,17.02
2017-08-27T04:44:29.317Z,17.05
2017-08-27T04:44:57.325Z,17.05
2017-08-27T04:45:25.379Z,17.05
2017-08-27T04:45:53.387Z,17.02
2017-08-27T04:46:21.518Z,17.05
2017-08-27T04:46:49.550Z,17.02
2017-08-27T04:47:17.598Z,16.97
2017-08-27T04:47:45.621Z,16.98
2017-08-27T04:48:13.598Z,16.95
2017-08-27T04:48:41.722Z,16.97
2017-08-27T04:49:09.747Z,17.02
2017-08-27T04:49:37.775Z,16.99
2017-08-27T04:50:05.687Z,17.01
2017-08-27T04:50:33.809Z,16.94
2017-08-27T04:51:01.698Z,16.97
2017-08-27T04:51:29.715Z,16.84
2017-08-27T04:51:57.845Z,16.89
2017-08-27T04:52:25.977Z,16.86
2017-08-27T04:52:54.122Z,16.89
2017-08-27T04:53:21.953Z,16.95
2017-08-27T04:53:49.975Z,16.86
2017-08-27T04:54:18.118Z,16.86
2017-08-27T04:54:46.235Z,16.84
2017-08-27T04:55:14.251Z,16.83
2017-08-27T04:55:42.275Z,16.82
2017-08-27T04:56:10.396Z,16.83
2017-08-27T04:56:38.512Z,16.82
2017-08-27T04:57:06.440Z,16.8
2017-08-27T04:57:34.447Z,16.77
2017-08-27T04:58:02.343Z,16.77
2017-08-27T04:58:30.470Z,16.73
2017-08-27T04:58:58.390Z,16.82
2017-08-27T04:59:26.374Z,16.74
2017-08-27T04:59:54.274Z,16.77
2017-08-27T05:00:22.393Z,16.72
2017-08-27T05:00:50.316Z,16.76
2017-08-27T05:01:18.344Z,16.65
2017-08-27T05:01:46.367Z,16.73
2017-08-27T05:02:14.469Z,16.66
2017-08-27T05:02:42.567Z,16.68
2017-08-27T05:03:10.568Z,16.72
2017-08-27T05:03:38.701Z,16.72
2017-08-27T05:04:06.804Z,16.68
2017-08-27T05:04:34.720Z,16.62
2017-08-27T05:05:02.873Z,16.58
2017-08-27T05:05:30.980Z,16.65
2017-08-27T05:05:59.083Z,16.61
2017-08-27T05:06:27.195Z,16.58
2017-08-27T05:06:55.176Z,16.64
2017-08-27T05:07:23.086Z,16.59
2017-08-27T05:07:51.226Z,16.64
2017-08-27T05:08:19.127Z,16.57
2017-08-27T05:08:47.262Z,16.57
2017-08-27T05:09:15.154Z,16.65
2017-08-27T05:09:43.151Z,16.61
2017-08-27T05:10:11.276Z,16.61
2017-08-27T05:10:39.269Z,16.59
2017-08-27T05:11:07.186Z,16.58
2017-08-27T05:11:35.189Z,16.57
2017-08-27T05:12:03.211Z,16.58
2017-08-27T05:12:31.199Z,16.49
2017-08-27T05:12:59.380Z,16.59
2017-08-27T05:13:27.292Z,16.51
2017-08-27T05:13:55.308Z,16.58
2017-08-27T05:14:23.406Z,16.57
2017-08-27T05:14:51.492Z,16.59
2017-08-27T05:15:19.631Z,16.5
2017-08-27T05:15:47.637Z,16.57
2017-08-27T05:16:15.484Z,16.58
2017-08-27T05:16:43.600Z,16.62
2017-08-27T05:17:11.626Z,16.54
2017-08-27T05:17:39.729Z,16.5
2017-08-27T05:18:07.731Z,16.49
2017-08-27T05:18:35.546Z,16.61
2017-08-27T05:19:03.496Z,16.49
2017-08-27T05:19:31.498Z,16.61
2017-08-27T05:19:59.513Z,16.51
2017-08-27T05:20:27.658Z,16.59
2017-08-27T05:20:55.670Z,16.61
2017-08-27T05:21:23.671Z,16.59
2017-08-27T05:21:51.800Z,16.64
2017-08-27T05:22:19.881Z,16.61
2017-08-27T05:22:47.978Z,16.58
2017-08-27T05:23:16.345Z,16.61
2017-08-27T05:23:44.508Z,16.65
2017-08-27T05:24:12.600Z,16.61
2017-08-27T05:24:40.501Z,16.61
2017-08-27T05:25:08.516Z,16.61
2017-08-27T05:25:36.658Z,16.65
2017-08-27T05:26:04.674Z,16.65
2017-08-27T05:26:32.700Z,16.72
2017-08-27T05:27:00.825Z,16.59
2017-08-27T05:27:28.869Z,16.57
2017-08-27T05:27:56.907Z,16.65
2017-08-27T05:28:25.034Z,16.73
2017-08-27T05:28:53.146Z,16.69
2017-08-27T05:29:21.270Z,16.66
2017-08-27T05:29:49.169Z,16.64
2017-08-27T05:30:17.215Z,16.69
2017-08-27T05:30:45.228Z,16.65
2017-08-27T05:31:13.017Z,16.69
2017-08-27T05:31:41.060Z,16.66
2017-08-27T05:32:08.982Z,16.69
2017-08-27T05:32:36.914Z,16.66
2017-08-27T05:33:04.904Z,16.61
2017-08-27T05:33:32.930Z,16.69
2017-08-27T05:34:01.092Z,16.64
2017-08-27T05:34:29.008Z,16.65
2017-08-27T05:34:57.159Z,16.69
2017-08-27T05:35:25.292Z,16.61
2017-08-27T05:35:53.215Z,16.65
2017-08-27T05:36:21.103Z,16.59
2017-08-27T05:36:49.104Z,16.59
2017-08-27T05:37:17.190Z,16.61
2017-08-27T05:37:45.195Z,16.55
2017-08-27T05:38:13.125Z,16.55
2017-08-27T05:38:41.026Z,16.47
2017-08-27T05:39:09.053Z,16.47
2017-08-27T05:39:36.980Z,16.59
2017-08-27T05:40:04.990Z,16.54
2017-08-27T05:40:33.221Z,16.43
2017-08-27T05:41:01.263Z,16.44
2017-08-27T05:41:29.387Z,16.43
2017-08-27T05:41:57.366Z,16.43
2017-08-27T05:42:25.472Z,16.47
2017-08-27T05:42:53.570Z,16.41
2017-08-27T05:43:21.688Z,16.36
2017-08-27T05:43:49.788Z,16.26
2017-08-27T05:44:17.791Z,16.32
2017-08-27T05:44:45.715Z,16.4
2017-08-27T05:45:13.781Z,16.31
2017-08-27T05:45:41.675Z,16.39
2017-08-27T05:46:09.768Z,16.32
2017-08-27T05:46:37.805Z,16.28
2017-08-27T05:47:05.815Z,16.31
2017-08-27T05:47:33.836Z,16.29
2017-08-27T05:48:01.739Z,16.34
2017-08-27T05:48:29.758Z,16.25
2017-08-27T05:48:57.929Z,16.32
2017-08-27T05:49:26.019Z,16.32
2017-08-27T05:49:54.020Z,16.28
2017-08-27T05:50:21.915Z,16.24
2017-08-27T05:50:49.990Z,16.24
2017-08-27T05:51:18.222Z,16.28
2017-08-27T05:51:46.326Z,16.28
2017-08-27T05:52:14.323Z,16.25
2017-08-27T05:52:42.423Z,16.26
2017-08-27T05:53:10.456Z,16.17
2017-08-27T05:53:38.627Z,16.18
2017-08-27T05:54:06.713Z,16.22
2017-08-27T05:54:34.838Z,16.24
2017-08-27T05:55:02.840Z,16.22
2017-08-27T05:55:30.829Z,16.21
2017-08-27T05:55:58.754Z,16.25
2017-08-27T05:56:26.829Z,16.18
2017-08-27T05:56:54.955Z,16.18
2017-08-27T05:57:22.962Z,16.13
2017-08-27T05:57:51.076Z,16.1
2017-08-27T05:58:19.124Z,16.09
2017-08-27T05:58:47.121Z,16.16
2017-08-27T05:59:15.153Z,16.08
2017-08-27T05:59:43.047Z,16.09
2017-08-27T06:00:10.972Z,16.09
2017-08-27T06:00:39.080Z,16.05
2017-08-27T06:01:07.088Z,16.03
2017-08-27T06:01:35.195Z,16.03
2017-08-27T06:02:03.303Z,15.98